Time;durP1;ratioP1;P1;durP2;ratioP2;P2;SDS_P1;SDS_P2;PMS_P1;PMS_P2;Temp;Humidity;BMP_temperature;BMP_pressure;BME280_temperature;BME280_humidity;BME280_pressure;Samples;Min_cycle;Max_cycle;Signal;HPM_P1;HPM_P2
2023/08/25 00:01:19;;;;;;;;;;;;;;;;;;5086344;28;4969;-53
2023/08/25 00:03:44;;;;;;;;;;;;;;;;;;5089754;28;5039;-54
2023/08/25 00:06:10;;;;;;;;;;;;;;;;;;5090989;28;4956;-54
2023/08/25 00:08:36;;;;;;;;;;;;;;;;;;5084651;28;5084;-53
2023/08/25 00:11:01;;;;;;;;;;;;;;;;;;5088724;28;1173;-54
2023/08/25 00:13:26;;;;;;;;;;;;;;;;;;5091040;28;4513;-57
2023/08/25 00:15:52;;;;;;;;;;;;;;;;;;5090523;28;5011;-57
2023/08/25 00:18:17;;;;;;;;;;;;;;;;;;5082241;28;5209;-56
2023/08/25 00:20:42;;;;;;;;;;;;;;;;;;5090439;28;5143;-54
2023/08/25 00:23:08;;;;;;;;;;;;;;;;;;5072858;28;1428;-56
2023/08/25 00:25:33;;;;;;;;;;;;;;;;;;5083574;28;4773;-57
2023/08/25 00:27:58;;;;;;;;;;;;;;;;;;5079715;28;5772;-56
2023/08/25 00:30:24;;;;;;;;;;;;;;;;;;5090432;28;4609;-56
2023/08/25 00:32:49;;;;;;;;;;;;;;;;;;5089912;28;4963;-56
2023/08/25 00:35:15;;;;;;;;;;;;;;;;;;5082721;28;4972;-56
2023/08/25 00:37:40;;;;;;;;;;;;;;;;;;5089071;28;4956;-56
2023/08/25 00:40:06;;;;;;;;;;;;;;;;;;5090364;28;4622;-56
2023/08/25 00:42:31;;;;;;;;;;;;;;;;;;5088576;28;4516;-55
2023/08/25 00:44:56;;;;;;;;;;;;;;;;;;5087986;28;5024;-56
2023/08/25 00:47:24;;;;;;;;;;;;;;;;;;5074860;28;2244;-56
2023/08/25 00:49:49;;;;;;;;;;;;;;;;;;5090420;28;5047;-57
2023/08/25 00:52:14;;;;;;;;;;;;;;;;;;5088370;28;5119;-56
2023/08/25 00:54:40;;;;;;;;;;;;;;;;;;5101432;28;5714;-56
2023/08/25 00:57:05;;;;;;;;;;;;;;;;;;5090304;28;5750;-55
2023/08/25 00:59:30;;;;;;;;;;;;;;;;;;5089890;28;5019;-55
2023/08/25 01:01:56;;;;;;;;;;;;;;;;;;5085855;28;3780;-56
2023/08/25 01:04:21;;;;;;;;;;;;;;;;;;5089794;28;4467;-57
2023/08/25 01:06:48;;;;;;;;;;;;;;;;;;5088769;28;4995;-56
2023/08/25 01:09:13;;;;;;;;;;;;;;;;;;5090321;28;5056;-57
2023/08/25 01:11:57;;;;;;;;;;;;;;;;;;5080254;28;4853;-57
2023/08/25 01:14:30;;;;;;;;;;;;;;;;;;5089906;28;3262;-56
2023/08/25 01:17:09;;;;;;;;;;;;;;;;;;5084138;28;6266;-56
2023/08/25 01:19:47;;;;;;;;;;;;;;;;;;5068891;28;4726;-56
2023/08/25 01:22:13;;;;;;;;;;;;;;;;;;5084339;28;5053;-57
2023/08/25 01:24:38;;;;;;;;;;;;;;;;;;5091356;28;5141;-54
2023/08/25 01:27:04;;;;;;;;;;;;;;;;;;5093265;28;5512;-55
2023/08/25 01:29:29;;;;;;;;;;;;;;;;;;5092748;28;4474;-55
2023/08/25 01:31:56;;;;;;;;;;;;;;;;;;5102504;28;3658;-56
2023/08/25 01:34:24;;;;;;;;;;;;;;;;;;5094822;28;4436;-56
2023/08/25 01:36:53;;;;;;;;;;;;;;;;;;5090784;28;5301;-56
2023/08/25 01:39:18;;;;;;;;;;;;;;;;;;5078171;28;4882;-55
2023/08/25 01:41:48;;;;;;;;;;;;;;;;;;5108382;28;5062;-56
2023/08/25 01:44:17;;;;;;;;;;;;;;;;;;5081981;28;3740;-56
2023/08/25 01:46:42;;;;;;;;;;;;;;;;;;5080873;28;5025;-54
2023/08/25 01:49:08;;;;;;;;;;;;;;;;;;5105356;27;4947;-56
2023/08/25 01:51:33;;;;;;;;;;;;;;;;;;5110578;27;5023;-56
2023/08/25 01:53:59;;;;;;;;;;;;;;;;;;5073190;28;5018;-56
2023/08/25 01:56:24;;;;;;;;;;;;;;;;;;5074524;28;1191;-57
2023/08/25 01:58:49;;;;;;;;;;;;;;;;;;5068532;28;4384;-56
2023/08/25 02:01:14;;;;;;;;;;;;;;;;;;5052765;28;5160;-57
2023/08/25 02:03:40;;;;;;;;;;;;;;;;;;5049875;28;5043;-56
2023/08/25 02:06:05;;;;;;;;;;;;;;;;;;5066657;28;5023;-56
2023/08/25 02:08:30;;;;;;;;;;;;;;;;;;5068895;28;5283;-54
2023/08/25 02:10:55;;;;;;;;;;;;;;;;;;5069163;28;3334;-56
2023/08/25 02:13:21;;;;;;;;;;;;;;;;;;5067956;28;4898;-56
2023/08/25 02:15:47;;;;;;;;;;;;;;;;;;5067065;28;5003;-56
2023/08/25 02:18:12;;;;;;;;;;;;;;;;;;5067790;28;5187;-55
2023/08/25 02:20:40;;;;;;;;;;;;;;;;;;5066054;28;5174;-56
2023/08/25 02:23:06;;;;;;;;;;;;;;;;;;5069183;28;1254;-56
2023/08/25 02:25:31;;;;;;;;;;;;;;;;;;5064600;28;4626;-56
2023/08/25 02:27:56;;;;;;;;;;;;;;;;;;5065632;28;5046;-56
2023/08/25 02:30:22;;;;;;;;;;;;;;;;;;5065961;28;4894;-54
2023/08/25 02:32:47;;;;;;;;;;;;;;;;;;5060558;28;4530;-55
2023/08/25 02:35:12;;;;;;;;;;;;;;;;;;5065828;28;5088;-55
2023/08/25 02:37:40;;;;;;;;;;;;;;;;;;5068256;28;4989;-56
2023/08/25 02:40:05;;;;;;;;;;;;;;;;;;5048851;28;4680;-56
2023/08/25 02:42:31;;;;;;;;;;;;;;;;;;5067194;28;5249;-55
2023/08/25 02:44:56;;;;;;;;;;;;;;;;;;5066308;28;4951;-56
2023/08/25 02:47:21;;;;;;;;;;;;;;;;;;5059177;28;1078;-55
2023/08/25 02:49:46;;;;;;;;;;;;;;;;;;5066146;28;5369;-54
2023/08/25 02:52:12;;;;;;;;;;;;;;;;;;5067395;28;4895;-54
2023/08/25 02:54:37;;;;;;;;;;;;;;;;;;5065105;28;4917;-56
2023/08/25 02:57:02;;;;;;;;;;;;;;;;;;5068715;28;5402;-56
2023/08/25 02:59:28;;;;;;;;;;;;;;;;;;5074117;28;1081;-53
2023/08/25 03:01:53;;;;;;;;;;;;;;;;;;5090422;28;5004;-55
2023/08/25 03:04:18;;;;;;;;;;;;;;;;;;5096509;28;5064;-56
2023/08/25 03:06:44;;;;;;;;;;;;;;;;;;5094062;28;4652;-56
2023/08/25 03:09:09;;;;;;;;;;;;;;;;;;5094885;28;4540;-55
2023/08/25 03:11:34;;;;;;;;;;;;;;;;;;5102308;28;5483;-54
2023/08/25 03:14:00;;;;;;;;;;;;;;;;;;5097611;28;1244;-56
2023/08/25 03:16:25;;;;;;;;;;;;;;;;;;5092802;28;5201;-56
2023/08/25 03:18:50;;;;;;;;;;;;;;;;;;5100340;28;4996;-54
2023/08/25 03:21:16;;;;;;;;;;;;;;;;;;5094716;28;5011;-56
2023/08/25 03:23:41;;;;;;;;;;;;;;;;;;5089341;28;4448;-56
2023/08/25 03:26:06;;;;;;;;;;;;;;;;;;5090752;28;1393;-56
2023/08/25 03:28:31;;;;;;;;;;;;;;;;;;5091349;28;5510;-57
2023/08/25 03:30:57;;;;;;;;;;;;;;;;;;5090235;28;4640;-57
2023/08/25 03:33:22;;;;;;;;;;;;;;;;;;5098912;28;4945;-56
2023/08/25 03:35:47;;;;;;;;;;;;;;;;;;5088184;28;5150;-56
2023/08/25 03:38:12;;;;;;;;;;;;;;;;;;5091946;28;1171;-55
2023/08/25 03:40:37;;;;;;;;;;;;;;;;;;5093768;28;4903;-56
2023/08/25 03:43:03;;;;;;;;;;;;;;;;;;5094293;28;4505;-56
2023/08/25 03:45:28;;;;;;;;;;;;;;;;;;5094269;28;4464;-56
2023/08/25 03:47:53;;;;;;;;;;;;;;;;;;5096882;28;4925;-56
2023/08/25 03:50:19;;;;;;;;;;;;;;;;;;5092602;28;2073;-56
2023/08/25 03:52:44;;;;;;;;;;;;;;;;;;5081460;28;5036;-56
2023/08/25 03:55:09;;;;;;;;;;;;;;;;;;5092627;28;5011;-56
2023/08/25 03:57:35;;;;;;;;;;;;;;;;;;5085987;28;5215;-55
2023/08/25 04:00:00;;;;;;;;;;;;;;;;;;5083640;28;4481;-55
2023/08/25 04:02:25;;;;;;;;;;;;;;;;;;5089547;28;3446;-56
2023/08/25 04:04:51;;;;;;;;;;;;;;;;;;5085228;28;5053;-56
2023/08/25 04:07:16;;;;;;;;;;;;;;;;;;5074656;28;4537;-55
2023/08/25 04:09:41;;;;;;;;;;;;;;;;;;5096107;28;5083;-55
2023/08/25 04:12:07;;;;;;;;;;;;;;;;;;5094951;28;4999;-55
2023/08/25 04:14:32;;;;;;;;;;;;;;;;;;5102397;28;5000;-56
2023/08/25 04:16:57;;;;;;;;;;;;;;;;;;5086660;28;3249;-56
2023/08/25 04:19:22;;;;;;;;;;;;;;;;;;5097133;28;4917;-56
2023/08/25 04:21:48;;;;;;;;;;;;;;;;;;5091384;28;5037;-56
2023/08/25 04:24:14;;;;;;;;;;;;;;;;;;5088178;28;5038;-56
2023/08/25 04:26:39;;;;;;;;;;;;;;;;;;5095756;28;5115;-56
2023/08/25 04:29:06;;;;;;;;;;;;;;;;;;5094932;28;3446;-56
2023/08/25 04:31:31;;;;;;;;;;;;;;;;;;5093727;28;4584;-54
2023/08/25 04:33:57;;;;;;;;;;;;;;;;;;5100717;28;4617;-56
2023/08/25 04:36:22;;;;;;;;;;;;;;;;;;5093235;28;4960;-56
2023/08/25 04:38:47;;;;;;;;;;;;;;;;;;5087443;28;5016;-56
2023/08/25 04:41:12;;;;;;;;;;;;;;;;;;5096469;28;1096;-54
2023/08/25 04:43:38;;;;;;;;;;;;;;;;;;5084615;28;5092;-56
2023/08/25 04:46:03;;;;;;;;;;;;;;;;;;5074996;28;5451;-56
2023/08/25 04:48:28;;;;;;;;;;;;;;;;;;5097657;28;4957;-56
2023/08/25 04:50:54;;;;;;;;;;;;;;;;;;5104206;28;5025;-56
2023/08/25 04:53:19;;;;;;;;;;;;;;;;;;5098620;28;1514;-56
2023/08/25 04:55:46;;;;;;;;;;;;;;;;;;5099665;28;5027;-56
2023/08/25 04:58:11;;;;;;;;;;;;;;;;;;5097018;28;4815;-56
2023/08/25 05:00:37;;;;;;;;;;;;;;;;;;5092157;28;5167;-56
2023/08/25 05:03:02;;;;;;;;;;;;;;;;;;5096365;28;5227;-56
2023/08/25 05:05:27;;;;;;;;;;;;;;;;;;5101753;28;1273;-55
2023/08/25 05:07:53;;;;;;;;;;;;;;;;;;5091659;28;4922;-54
2023/08/25 05:10:18;;;;;;;;;;;;;;;;;;5092101;28;4971;-56
2023/08/25 05:12:43;;;;;;;;;;;;;;;;;;5099461;28;4658;-55
2023/08/25 05:15:09;;;;;;;;;;;;;;;;;;5092769;28;5151;-56
2023/08/25 05:17:34;;;;;;;;;;;;;;;;;;5104295;28;4855;-55
2023/08/25 05:19:59;;;;;;;;;;;;;;;;;;5096967;28;1302;-56
2023/08/25 05:22:24;;;;;;;;;;;;;;;;;;5090467;28;4389;-56
2023/08/25 05:24:51;;;;;;;;;;;;;;;;;;5076836;28;7597;-54
2023/08/25 05:27:16;;;;;;;;;;;;;;;;;;5094774;28;5202;-56
2023/08/25 05:29:41;;;;;;;;;;;;;;;;;;5090849;28;5010;-56
2023/08/25 05:32:07;;;;;;;;;;;;;;;;;;5080420;28;5352;-54
2023/08/25 05:34:32;;;;;;;;;;;;;;;;;;5100123;28;1937;-55
2023/08/25 05:36:58;;;;;;;;;;;;;;;;;;5098720;28;5404;-56
2023/08/25 05:39:23;;;;;;;;;;;;;;;;;;5084570;28;5047;-56
2023/08/25 05:41:48;;;;;;;;;;;;;;;;;;5093864;28;5181;-56
2023/08/25 05:44:13;;;;;;;;;;;;;;;;;;5093304;28;5022;-55
2023/08/25 05:46:39;;;;;;;;;;;;;;;;;;5099413;28;1339;-56
2023/08/25 05:49:04;;;;;;;;;;;;;;;;;;5098312;28;4969;-56
2023/08/25 05:51:30;;;;;;;;;;;;;;;;;;5099769;28;5077;-55
2023/08/25 05:53:55;;;;;;;;;;;;;;;;;;5097514;28;5136;-56
2023/08/25 05:56:20;;;;;;;;;;;;;;;;;;5100989;28;4562;-55
2023/08/25 05:58:45;;;;;;;;;;;;;;;;;;5098093;28;5219;-56
2023/08/25 06:01:10;;;;;;;;;;;;;;;;;;5074207;28;5216;-56
2023/08/25 06:03:36;;;;;;;;;;;;;;;;;;5093438;28;5038;-56
2023/08/25 06:06:01;;;;;;;;;;;;;;;;;;5097881;28;5053;-55
2023/08/25 06:08:26;;;;;;;;;;;;;;;;;;5096025;28;4450;-56
2023/08/25 06:10:52;;;;;;;;;;;;;;;;;;5102402;28;1001;-56
2023/08/25 06:13:17;;;;;;;;;;;;;;;;;;5067811;28;4820;-56
2023/08/25 06:15:42;;;;;;;;;;;;;;;;;;5087653;28;4995;-56
2023/08/25 06:18:08;;;;;;;;;;;;;;;;;;5087998;28;5137;-54
2023/08/25 06:20:33;;;;;;;;;;;;;;;;;;5082109;28;5076;-55
2023/08/25 06:22:58;;;;;;;;;;;;;;;;;;5097790;28;1308;-55
2023/08/25 06:25:23;;;;;;;;;;;;;;;;;;5096346;28;5001;-56
2023/08/25 06:27:49;;;;;;;;;;;;;;;;;;5094892;28;5072;-55
2023/08/25 06:30:16;;;;;;;;;;;;;;;;;;5096301;28;5073;-54
2023/08/25 06:32:41;;;;;;;;;;;;;;;;;;5091293;28;6509;-55
2023/08/25 06:35:07;;;;;;;;;;;;;;;;;;5092494;28;5112;-54
2023/08/25 06:37:33;;;;;;;;;;;;;;;;;;5092465;28;3376;-54
2023/08/25 06:39:58;;;;;;;;;;;;;;;;;;5095120;28;4472;-54
2023/08/25 06:42:23;;;;;;;;;;;;;;;;;;5090717;28;5002;-54
2023/08/25 06:44:48;;;;;;;;;;;;;;;;;;5089281;28;4668;-53
2023/08/25 06:47:14;;;;;;;;;;;;;;;;;;5095925;28;5177;-53
2023/08/25 06:49:39;;;;;;;;;;;;;;;;;;5089997;28;3064;-52
2023/08/25 06:52:05;;;;;;;;;;;;;;;;;;5087054;28;5037;-52
2023/08/25 06:54:31;;;;;;;;;;;;;;;;;;5080057;28;5064;-54
2023/08/25 06:56:56;;;;;;;;;;;;;;;;;;5087426;28;4424;-54
2023/08/25 06:59:22;;;;;;;;;;;;;;;;;;5087093;28;5010;-55
2023/08/25 07:01:48;;;;;;;;;;;;;;;;;;5084988;28;3113;-56
2023/08/25 07:04:13;;;;;;;;;;;;;;;;;;5088923;28;5121;-56
2023/08/25 07:06:39;;;;;;;;;;;;;;;;;;5090845;28;5122;-54
2023/08/25 07:09:04;;;;;;;;;;;;;;;;;;5089694;28;5131;-51
2023/08/25 07:11:30;;;;;;;;;;;;;;;;;;5099589;28;4488;-52
2023/08/25 07:13:55;;;;;;;;;;;;;;;;;;5097820;28;3229;-54
2023/08/25 07:16:20;;;;;;;;;;;;;;;;;;5098830;28;4954;-55
2023/08/25 07:18:45;;;;;;;;;;;;;;;;;;5088658;28;4943;-52
2023/08/25 07:21:11;;;;;;;;;;;;;;;;;;5096813;28;5025;-54
2023/08/25 07:23:36;;;;;;;;;;;;;;;;;;5090766;28;5101;-53
2023/08/25 07:26:02;;;;;;;;;;;;;;;;;;5096170;28;1135;-55
2023/08/25 07:28:27;;;;;;;;;;;;;;;;;;5090245;28;5016;-55
2023/08/25 07:30:52;;;;;;;;;;;;;;;;;;5102248;28;5055;-55
2023/08/25 07:33:18;;;;;;;;;;;;;;;;;;5070922;28;5244;-55
2023/08/25 07:35:43;;;;;;;;;;;;;;;;;;5084295;28;4713;-57
2023/08/25 07:38:10;;;;;;;;;;;;;;;;;;5096256;28;5103;-55
2023/08/25 07:40:36;;;;;;;;;;;;;;;;;;5089436;28;3614;-55
2023/08/25 07:43:01;;;;;;;;;;;;;;;;;;5099717;28;4607;-55
2023/08/25 07:45:27;;;;;;;;;;;;;;;;;;5104136;28;4972;-55
2023/08/25 07:47:54;;;;;;;;;;;;;;;;;;5088257;28;4675;-55
2023/08/25 07:50:20;;;;;;;;;;;;;;;;;;5094135;28;5094;-56
2023/08/25 07:52:45;;;;;;;;;;;;;;;;;;5102822;28;2226;-54
2023/08/25 07:55:12;;;;;;;;;;;;;;;;;;5091249;28;5056;-55
2023/08/25 07:57:37;;;;;;;;;;;;;;;;;;5079520;28;4924;-56
2023/08/25 08:00:04;;;;;;;;;;;;;;;;;;5087107;28;5072;-55
2023/08/25 08:02:30;;;;;;;;;;;;;;;;;;5084349;28;4908;-56
2023/08/25 08:04:55;;;;;;;;;;;;;;;;;;5084735;28;1291;-56
2023/08/25 08:07:20;;;;;;;;;;;;;;;;;;5085426;28;5088;-55
2023/08/25 08:09:46;;;;;;;;;;;;;;;;;;5087006;28;4610;-54
2023/08/25 08:12:11;;;;;;;;;;;;;;;;;;5086041;28;4555;-54
2023/08/25 08:14:36;;;;;;;;;;;;;;;;;;5077388;28;5056;-55
2023/08/25 08:17:02;;;;;;;;;;;;;;;;;;5076521;28;3381;-55
2023/08/25 08:19:28;;;;;;;;;;;;;;;;;;5067915;28;4787;-57
2023/08/25 08:21:53;;;;;;;;;;;;;;;;;;5087224;28;5631;-61
2023/08/25 08:24:19;;;;;;;;;;;;;;;;;;5081963;28;4429;-60
2023/08/25 08:26:44;;;;;;;;;;;;;;;;;;5071807;28;4462;-53
2023/08/25 08:29:09;;;;;;;;;;;;;;;;;;5088728;28;4985;-51
2023/08/25 08:31:35;;;;;;;;;;;;;;;;;;5086253;28;5053;-54
2023/08/25 08:34:00;;;;;;;;;;;;;;;;;;5091456;28;5216;-52
2023/08/25 08:36:25;;;;;;;;;;;;;;;;;;5091483;28;5599;-56
2023/08/25 08:38:51;;;;;;;;;;;;;;;;;;5083497;28;5020;-54
2023/08/25 08:41:16;;;;;;;;;;;;;;;;;;5089186;28;5083;-53
2023/08/25 08:43:42;;;;;;;;;;;;;;;;;;5100208;28;3201;-54
2023/08/25 08:46:08;;;;;;;;;;;;;;;;;;5078474;28;5030;-53
2023/08/25 08:48:34;;;;;;;;;;;;;;;;;;5079088;28;5165;-53
2023/08/25 08:50:59;;;;;;;;;;;;;;;;;;5072556;28;5136;-54
2023/08/25 08:53:24;;;;;;;;;;;;;;;;;;5089940;28;4448;-52
2023/08/25 08:55:50;;;;;;;;;;;;;;;;;;5100975;28;1972;-52
2023/08/25 08:58:15;;;;;;;;;;;;;;;;;;5085083;28;4408;-55
2023/08/25 09:00:40;;;;;;;;;;;;;;;;;;5090627;28;4603;-53
2023/08/25 09:03:08;;;;;;;;;;;;;;;;;;5093361;28;4654;-54
2023/08/25 09:05:35;;;;;;;;;;;;;;;;;;5090345;28;5021;-51
2023/08/25 09:08:01;;;;;;;;;;;;;;;;;;5092620;28;3388;-55
2023/08/25 09:10:27;;;;;;;;;;;;;;;;;;5088762;28;4397;-54
2023/08/25 09:12:52;;;;;;;;;;;;;;;;;;5062977;28;4857;-54
2023/08/25 09:15:27;;;;;;;;;;;;;;;;;;5089702;28;4955;-55
2023/08/25 09:17:58;;;;;;;;;;;;;;;;;;5088959;28;5012;-54
2023/08/25 09:20:24;;;;;;;;;;;;;;;;;;5078257;28;4782;-56
2023/08/25 09:22:55;;;;;;;;;;;;;;;;;;5096812;28;3223;-56
2023/08/25 09:25:21;;;;;;;;;;;;;;;;;;5075449;28;4852;-52
2023/08/25 09:27:46;;;;;;;;;;;;;;;;;;5077310;28;5162;-57
2023/08/25 09:30:12;;;;;;;;;;;;;;;;;;5091919;28;4543;-56
2023/08/25 09:32:37;;;;;;;;;;;;;;;;;;5093176;28;5065;-56
2023/08/25 09:35:09;;;;;;;;;;;;;;;;;;5087796;28;1918;-56
2023/08/25 09:37:39;;;;;;;;;;;;;;;;;;5081624;28;5054;-56
2023/08/25 09:40:05;;;;;;;;;;;;;;;;;;5076047;28;4725;-56
2023/08/25 09:42:30;;;;;;;;;;;;;;;;;;5078970;28;4406;-56
2023/08/25 09:44:58;;;;;;;;;;;;;;;;;;5080707;28;5099;-53
2023/08/25 09:47:23;;;;;;;;;;;;;;;;;;5074224;28;5085;-54
2023/08/25 09:49:49;;;;;;;;;;;;;;;;;;5059451;28;1440;-54
2023/08/25 09:52:14;;;;;;;;;;;;;;;;;;5078815;28;4936;-54
2023/08/25 09:54:39;;;;;;;;;;;;;;;;;;5077217;28;4589;-56
2023/08/25 09:57:04;;;;;;;;;;;;;;;;;;5073611;28;5094;-54
2023/08/25 09:59:30;;;;;;;;;;;;;;;;;;5087945;28;5123;-55
2023/08/25 10:01:57;;;;;;;;;;;;;;;;;;5050858;28;1371;-52
2023/08/25 10:04:22;;;;;;;;;;;;;;;;;;5050971;28;5022;-54
2023/08/25 10:06:47;;;;;;;;;;;;;;;;;;5071659;28;5253;-55
2023/08/25 10:09:13;;;;;;;;;;;;;;;;;;5079463;28;5114;-56
2023/08/25 10:11:41;;;;;;;;;;;;;;;;;;5080415;28;5008;-55
2023/08/25 10:14:07;;;;;;;;;;;;;;;;;;5082733;28;5123;-54
2023/08/25 10:16:34;;;;;;;;;;;;;;;;;;5081435;28;2230;-54
2023/08/25 10:19:01;;;;;;;;;;;;;;;;;;5065614;28;5107;-55
2023/08/25 10:21:26;;;;;;;;;;;;;;;;;;5060752;28;5028;-55
2023/08/25 10:23:52;;;;;;;;;;;;;;;;;;5054976;28;4859;-55
2023/08/25 10:26:17;;;;;;;;;;;;;;;;;;5081144;28;4428;-55
2023/08/25 10:28:43;;;;;;;;;;;;;;;;;;5078765;28;1396;-55
2023/08/25 10:31:09;;;;;;;;;;;;;;;;;;5056938;28;5063;-56
2023/08/25 10:33:47;;;;;;;;;;;;;;;;;;5062390;28;4428;-52
2023/08/25 10:36:21;;;;;;;;;;;;;;;;;;5081990;28;5041;-54
2023/08/25 10:38:59;;;;;;;;;;;;;;;;;;5064707;28;4687;-53
2023/08/25 10:41:24;;;;;;;;;;;;;;;;;;5077622;28;4833;-56
2023/08/25 10:43:51;;;;;;;;;;;;;;;;;;5083397;28;1231;-56
2023/08/25 10:46:16;;;;;;;;;;;;;;;;;;5079965;28;4710;-56
2023/08/25 10:48:42;;;;;;;;;;;;;;;;;;5081075;28;5146;-56
2023/08/25 10:51:11;;;;;;;;;;;;;;;;;;5077402;28;5002;-56
2023/08/25 10:53:37;;;;;;;;;;;;;;;;;;5079950;28;4856;-56
2023/08/25 10:56:15;;;;;;;;;;;;;;;;;;5078782;28;2006;-56
2023/08/25 10:58:40;;;;;;;;;;;;;;;;;;5081295;28;4971;-56
2023/08/25 11:01:05;;;;;;;;;;;;;;;;;;5078384;28;4993;-56
2023/08/25 11:03:47;;;;;;;;;;;;;;;;;;5080575;28;4918;-57
2023/08/25 11:06:31;;;;;;;;;;;;;;;;;;5081041;28;4643;-56
2023/08/25 11:08:56;;;;;;;;;;;;;;;;;;5078457;28;5085;-57
2023/08/25 11:11:21;;;;;;;;;;;;;;;;;;5079527;28;5065;-56
2023/08/25 11:13:46;;;;;;;;;;;;;;;;;;5081311;28;1908;-56
2023/08/25 11:16:12;;;;;;;;;;;;;;;;;;5077433;28;5053;-57
2023/08/25 11:18:41;;;;;;;;;;;;;;;;;;5081154;28;5235;-57
2023/08/25 11:21:06;;;;;;;;;;;;;;;;;;5076675;28;4869;-57
2023/08/25 11:23:42;;;;;;;;;;;;;;;;;;5076385;28;4471;-57
2023/08/25 11:26:10;;;;;;;;;;;;;;;;;;5075621;28;5065;-56
2023/08/25 11:28:36;;;;;;;;;;;;;;;;;;5060872;28;3308;-71
2023/08/25 11:31:01;;;;;;;;;;;;;;;;;;5065923;28;5181;-71
2023/08/25 11:33:27;;;;;;;;;;;;;;;;;;5060598;28;4489;-71
2023/08/25 11:35:53;;;;;;;;;;;;;;;;;;5063682;28;4799;-70
2023/08/25 11:38:19;;;;;;;;;;;;;;;;;;5067253;28;4676;-72
2023/08/25 11:40:44;;;;;;;;;;;;;;;;;;5081098;28;1080;-68
2023/08/25 11:43:09;;;;;;;;;;;;;;;;;;5069444;28;4959;-65
2023/08/25 11:45:34;;;;;;;;;;;;;;;;;;5062560;28;5062;-63
2023/08/25 11:48:00;;;;;;;;;;;;;;;;;;5065970;28;4675;-65
2023/08/25 11:50:25;;;;;;;;;;;;;;;;;;5057008;28;5113;-65
2023/08/25 11:52:50;;;;;;;;;;;;;;;;;;5049550;28;1766;-63
2023/08/25 11:55:16;;;;;;;;;;;;;;;;;;5071647;28;4621;-65
2023/08/25 11:57:41;;;;;;;;;;;;;;;;;;5060298;28;4960;-66
2023/08/25 12:00:06;;;;;;;;;;;;;;;;;;5065294;28;5138;-65
2023/08/25 12:02:32;;;;;;;;;;;;;;;;;;5042106;28;5807;-64
2023/08/25 12:04:59;;;;;;;;;;;;;;;;;;5055884;28;1161;-65
2023/08/25 12:07:24;;;;;;;;;;;;;;;;;;5082523;28;5149;-65
2023/08/25 12:09:54;;;;;;;;;;;;;;;;;;5080844;28;5100;-65
2023/08/25 12:12:19;;;;;;;;;;;;;;;;;;5076216;28;4646;-65
2023/08/25 12:14:45;;;;;;;;;;;;;;;;;;5062729;28;4984;-66
2023/08/25 12:17:19;;;;;;;;;;;;;;;;;;5073925;28;4476;-64
2023/08/25 12:19:44;;;;;;;;;;;;;;;;;;5061285;28;1128;-64
2023/08/25 12:22:10;;;;;;;;;;;;;;;;;;5074090;28;4428;-62
2023/08/25 12:24:35;;;;;;;;;;;;;;;;;;5058732;28;5139;-65
2023/08/25 12:27:01;;;;;;;;;;;;;;;;;;5079126;28;4950;-63
2023/08/25 12:29:26;;;;;;;;;;;;;;;;;;5083328;28;5036;-65
2023/08/25 12:31:53;;;;;;;;;;;;;;;;;;5087713;28;5176;-64
2023/08/25 12:34:18;;;;;;;;;;;;;;;;;;5091360;28;5365;-65
2023/08/25 12:36:43;;;;;;;;;;;;;;;;;;5088637;28;5119;-66
2023/08/25 12:39:08;;;;;;;;;;;;;;;;;;5088999;28;5197;-66
2023/08/25 12:41:34;;;;;;;;;;;;;;;;;;5085648;28;5048;-65
2023/08/25 12:43:59;;;;;;;;;;;;;;;;;;5068824;28;1191;-64
2023/08/25 12:46:24;;;;;;;;;;;;;;;;;;5085284;28;4843;-65
2023/08/25 12:48:49;;;;;;;;;;;;;;;;;;5085511;28;4418;-65
2023/08/25 12:51:15;;;;;;;;;;;;;;;;;;5063546;28;5075;-64
2023/08/25 12:53:41;;;;;;;;;;;;;;;;;;5084386;28;5149;-64
2023/08/25 12:56:06;;;;;;;;;;;;;;;;;;5070142;28;5038;-65
2023/08/25 12:58:31;;;;;;;;;;;;;;;;;;5089000;28;1241;-66
2023/08/25 13:00:56;;;;;;;;;;;;;;;;;;5080796;28;4961;-65
2023/08/25 13:03:22;;;;;;;;;;;;;;;;;;5081915;28;5103;-65
2023/08/25 13:05:47;;;;;;;;;;;;;;;;;;5061083;28;5197;-65
2023/08/25 13:08:13;;;;;;;;;;;;;;;;;;5084856;28;5051;-66
2023/08/25 13:10:38;;;;;;;;;;;;;;;;;;5075837;28;1225;-64
2023/08/25 13:13:05;;;;;;;;;;;;;;;;;;5077027;28;5032;-65
2023/08/25 13:15:30;;;;;;;;;;;;;;;;;;5079297;28;4988;-64
2023/08/25 13:17:56;;;;;;;;;;;;;;;;;;5079620;28;5027;-66
2023/08/25 13:20:21;;;;;;;;;;;;;;;;;;5084926;28;4970;-65
2023/08/25 13:22:46;;;;;;;;;;;;;;;;;;5081424;28;1337;-64
2023/08/25 13:25:12;;;;;;;;;;;;;;;;;;5077120;28;4651;-65
2023/08/25 13:27:37;;;;;;;;;;;;;;;;;;5072835;28;5026;-66
2023/08/25 13:30:04;;;;;;;;;;;;;;;;;;5076673;28;5211;-63
2023/08/25 13:32:29;;;;;;;;;;;;;;;;;;5076731;28;5386;-65
2023/08/25 13:34:54;;;;;;;;;;;;;;;;;;5087708;28;2247;-65
2023/08/25 13:37:20;;;;;;;;;;;;;;;;;;5077861;28;4682;-66
2023/08/25 13:39:45;;;;;;;;;;;;;;;;;;5084665;28;4648;-63
2023/08/25 13:42:11;;;;;;;;;;;;;;;;;;5082237;28;5002;-65
2023/08/25 13:44:38;;;;;;;;;;;;;;;;;;5076362;28;5092;-65
2023/08/25 13:47:04;;;;;;;;;;;;;;;;;;5086209;28;1104;-65
2023/08/25 13:49:29;;;;;;;;;;;;;;;;;;5080888;28;4611;-64
2023/08/25 13:51:54;;;;;;;;;;;;;;;;;;5084616;28;5053;-65
2023/08/25 13:54:19;;;;;;;;;;;;;;;;;;5073648;28;5378;-64
2023/08/25 13:56:45;;;;;;;;;;;;;;;;;;5055280;28;5063;-64
2023/08/25 13:59:10;;;;;;;;;;;;;;;;;;5067692;28;5148;-64
2023/08/25 14:01:35;;;;;;;;;;;;;;;;;;5053592;28;2239;-64
2023/08/25 14:04:01;;;;;;;;;;;;;;;;;;5071593;28;5145;-64
2023/08/25 14:06:26;;;;;;;;;;;;;;;;;;5072105;28;5022;-64
2023/08/25 14:08:51;;;;;;;;;;;;;;;;;;5071281;28;4662;-64
2023/08/25 14:11:17;;;;;;;;;;;;;;;;;;5079152;28;5114;-65
2023/08/25 14:13:42;;;;;;;;;;;;;;;;;;5075940;28;1306;-65
2023/08/25 14:16:07;;;;;;;;;;;;;;;;;;5067608;28;5029;-63
2023/08/25 14:18:33;;;;;;;;;;;;;;;;;;5055202;28;5411;-65
2023/08/25 14:20:58;;;;;;;;;;;;;;;;;;5064504;28;4847;-66
2023/08/25 14:23:23;;;;;;;;;;;;;;;;;;5076054;28;4547;-65
2023/08/25 14:25:49;;;;;;;;;;;;;;;;;;5051617;28;1735;-66
2023/08/25 14:28:14;;;;;;;;;;;;;;;;;;5072833;28;4871;-64
2023/08/25 14:30:39;;;;;;;;;;;;;;;;;;5078719;28;4902;-64
2023/08/25 14:33:04;;;;;;;;;;;;;;;;;;5082785;28;5319;-65
2023/08/25 14:35:30;;;;;;;;;;;;;;;;;;5075886;28;5220;-65
2023/08/25 14:37:55;;;;;;;;;;;;;;;;;;5085029;28;1040;-66
2023/08/25 14:40:20;;;;;;;;;;;;;;;;;;5077003;28;4635;-62
2023/08/25 14:42:46;;;;;;;;;;;;;;;;;;5076797;28;4930;-63
2023/08/25 14:45:11;;;;;;;;;;;;;;;;;;5060581;28;5054;-65
2023/08/25 14:47:37;;;;;;;;;;;;;;;;;;5082772;28;4997;-64
2023/08/25 14:50:03;;;;;;;;;;;;;;;;;;5080600;28;1162;-65
2023/08/25 14:52:29;;;;;;;;;;;;;;;;;;5079753;28;5031;-65
2023/08/25 14:54:54;;;;;;;;;;;;;;;;;;5077856;28;5080;-64
2023/08/25 14:57:19;;;;;;;;;;;;;;;;;;5087599;28;4975;-63
2023/08/25 14:59:44;;;;;;;;;;;;;;;;;;5082232;28;4916;-65
2023/08/25 15:02:10;;;;;;;;;;;;;;;;;;5067362;28;4824;-64
2023/08/25 15:04:35;;;;;;;;;;;;;;;;;;5065378;28;1277;-66
2023/08/25 15:07:00;;;;;;;;;;;;;;;;;;5067186;28;5029;-66
2023/08/25 15:09:26;;;;;;;;;;;;;;;;;;5048970;28;5002;-65
2023/08/25 15:11:51;;;;;;;;;;;;;;;;;;5067188;28;4663;-64
2023/08/25 15:14:17;;;;;;;;;;;;;;;;;;5067454;28;4823;-64
2023/08/25 15:16:42;;;;;;;;;;;;;;;;;;5066491;28;1925;-65
2023/08/25 15:19:08;;;;;;;;;;;;;;;;;;5084234;28;4985;-66
2023/08/25 15:21:33;;;;;;;;;;;;;;;;;;5087564;28;4868;-64
2023/08/25 15:23:58;;;;;;;;;;;;;;;;;;5082507;28;4869;-65
2023/08/25 15:26:23;;;;;;;;;;;;;;;;;;5087224;28;5957;-65
2023/08/25 15:28:49;;;;;;;;;;;;;;;;;;5087686;28;1252;-64
2023/08/25 15:31:14;;;;;;;;;;;;;;;;;;5081670;28;5070;-65
2023/08/25 15:33:42;;;;;;;;;;;;;;;;;;5083589;28;4439;-66
2023/08/25 15:36:08;;;;;;;;;;;;;;;;;;5086811;28;5042;-65
2023/08/25 15:38:33;;;;;;;;;;;;;;;;;;5082496;28;4440;-64
2023/08/25 15:41:03;;;;;;;;;;;;;;;;;;5067544;28;1136;-66
2023/08/25 15:43:28;;;;;;;;;;;;;;;;;;5066775;28;4808;-65
2023/08/25 15:45:54;;;;;;;;;;;;;;;;;;5064163;28;5014;-65
2023/08/25 15:48:22;;;;;;;;;;;;;;;;;;5066825;28;4925;-65
2023/08/25 15:50:48;;;;;;;;;;;;;;;;;;5066810;28;5250;-65
2023/08/25 15:53:13;;;;;;;;;;;;;;;;;;5066354;28;5070;-65
2023/08/25 15:55:38;;;;;;;;;;;;;;;;;;5058825;28;2662;-63
2023/08/25 15:58:04;;;;;;;;;;;;;;;;;;5063200;28;5332;-64
2023/08/25 16:00:29;;;;;;;;;;;;;;;;;;5066810;28;5017;-65
2023/08/25 16:02:56;;;;;;;;;;;;;;;;;;5072305;28;5089;-66
2023/08/25 16:05:21;;;;;;;;;;;;;;;;;;5070052;28;5022;-64
2023/08/25 16:07:46;;;;;;;;;;;;;;;;;;5069344;28;1128;-64
2023/08/25 16:10:12;;;;;;;;;;;;;;;;;;5071813;28;4928;-64
2023/08/25 16:12:38;;;;;;;;;;;;;;;;;;5070402;28;5759;-67
2023/08/25 16:15:03;;;;;;;;;;;;;;;;;;5068038;28;5126;-65
2023/08/25 16:17:28;;;;;;;;;;;;;;;;;;5072837;28;4908;-64
2023/08/25 16:19:54;;;;;;;;;;;;;;;;;;5069516;28;1193;-66
2023/08/25 16:22:19;;;;;;;;;;;;;;;;;;5068269;28;4936;-64
2023/08/25 16:24:44;;;;;;;;;;;;;;;;;;5064005;28;4600;-63
2023/08/25 16:27:10;;;;;;;;;;;;;;;;;;5064045;28;5845;-65
2023/08/25 16:29:35;;;;;;;;;;;;;;;;;;5066516;28;4958;-65
2023/08/25 16:32:02;;;;;;;;;;;;;;;;;;5064566;28;5085;-64
2023/08/25 16:34:27;;;;;;;;;;;;;;;;;;5066248;28;5111;-63
2023/08/25 16:36:53;;;;;;;;;;;;;;;;;;5066400;28;5010;-64
2023/08/25 16:39:18;;;;;;;;;;;;;;;;;;5066418;28;4463;-65
2023/08/25 16:41:43;;;;;;;;;;;;;;;;;;5063807;28;4958;-66
2023/08/25 16:44:08;;;;;;;;;;;;;;;;;;5066667;28;5107;-65
2023/08/25 16:46:34;;;;;;;;;;;;;;;;;;5069014;28;1175;-64
2023/08/25 16:48:59;;;;;;;;;;;;;;;;;;5072072;28;4774;-64
2023/08/25 16:51:24;;;;;;;;;;;;;;;;;;5069653;28;5057;-64
2023/08/25 16:53:49;;;;;;;;;;;;;;;;;;5069112;28;5088;-65